createdAt,value
2019-03-15T00:00:51.747Z,2.84
2019-03-15T00:03:21.373Z,2.82
2019-03-15T00:05:51.064Z,2.79
2019-03-15T00:08:20.524Z,2.76
2019-03-15T00:10:50.153Z,2.76
2019-03-15T00:13:19.984Z,2.76
2019-03-15T00:15:49.614Z,2.70
2019-03-15T00:18:19.248Z,2.66
2019-03-15T00:20:48.972Z,2.59
2019-03-15T00:23:18.597Z,2.63
2019-03-15T00:25:48.229Z,2.63
2019-03-15T00:28:18.214Z,2.59
2019-03-15T00:30:47.786Z,2.62
2019-03-15T00:33:17.321Z,2.57
2019-03-15T00:35:46.946Z,2.50
2019-03-15T00:38:16.615Z,2.49
2019-03-15T00:40:46.399Z,2.47
2019-03-15T00:43:16.031Z,2.47
2019-03-15T00:45:45.766Z,2.39
2019-03-15T00:48:16.416Z,2.37
2019-03-15T00:50:46.039Z,2.26
2019-03-15T00:53:15.691Z,2.18
2019-03-15T00:55:45.529Z,2.12
2019-03-15T00:58:15.146Z,2.04
2019-03-15T01:00:45.005Z,2.10
2019-03-15T01:03:14.690Z,2.13
2019-03-15T01:05:44.422Z,2.02
2019-03-15T01:08:14.162Z,1.91
2019-03-15T01:10:43.783Z,1.84
2019-03-15T01:13:13.438Z,1.82
2019-03-15T01:15:43.032Z,1.77
2019-03-15T01:18:12.665Z,1.78
2019-03-15T01:20:42.291Z,1.86
2019-03-15T01:23:11.834Z,1.87
2019-03-15T01:25:41.543Z,1.85
2019-03-15T01:28:12.094Z,1.87
2019-03-15T01:30:41.135Z,1.93
2019-03-15T01:33:10.630Z,1.90
2019-03-15T01:35:40.265Z,1.93
2019-03-15T01:38:09.891Z,1.94
2019-03-15T01:40:39.719Z,1.97
2019-03-15T01:43:10.463Z,2.00
2019-03-15T01:45:40.357Z,1.99
2019-03-15T01:48:10.135Z,2.01
2019-03-15T01:50:39.761Z,2.06
2019-03-15T01:53:09.596Z,2.06
2019-03-15T01:55:40.870Z,2.12
2019-03-15T01:58:10.485Z,2.18
2019-03-15T02:00:40.520Z,2.26
2019-03-15T02:03:10.252Z,2.26
2019-03-15T02:05:40.098Z,2.26
2019-03-15T02:08:09.817Z,2.24
2019-03-15T02:10:39.445Z,2.24
2019-03-15T02:13:09.039Z,2.28
2019-03-15T02:15:38.703Z,2.27
2019-03-15T02:18:08.325Z,2.28
2019-03-15T02:20:37.961Z,2.25
2019-03-15T02:23:07.490Z,2.23
2019-03-15T02:25:37.110Z,2.23
2019-03-15T02:28:06.840Z,2.21
2019-03-15T02:30:36.467Z,2.17
2019-03-15T02:33:06.482Z,2.11
2019-03-15T02:35:37.358Z,2.02
2019-03-15T02:38:06.985Z,1.95
2019-03-15T02:40:38.862Z,1.89
2019-03-15T02:43:08.796Z,1.86
2019-03-15T02:45:38.625Z,1.82
2019-03-15T02:48:08.257Z,1.81
2019-03-15T02:50:37.784Z,1.80
2019-03-15T02:53:07.303Z,1.80
2019-03-15T02:55:36.900Z,1.80
2019-03-15T02:58:08.001Z,1.79
2019-03-15T03:00:37.732Z,1.77
2019-03-15T03:03:07.565Z,1.77
2019-03-15T03:05:37.183Z,1.79
2019-03-15T03:08:06.796Z,1.82
2019-03-15T03:10:36.452Z,1.84
2019-03-15T03:13:06.071Z,1.84
2019-03-15T03:15:35.895Z,1.81
2019-03-15T03:18:05.680Z,1.79
2019-03-15T03:20:37.088Z,1.79
2019-03-15T03:23:07.100Z,1.77
2019-03-15T03:25:37.230Z,1.76
2019-03-15T03:28:07.137Z,1.77
2019-03-15T03:30:36.649Z,1.77
2019-03-15T03:33:06.376Z,1.74
2019-03-15T03:35:35.992Z,1.74
2019-03-15T03:38:05.623Z,1.70
2019-03-15T03:40:35.248Z,1.68
2019-03-15T03:43:04.970Z,1.63
2019-03-15T03:45:34.812Z,1.58
2019-03-15T03:48:04.632Z,1.56
2019-03-15T03:50:34.361Z,1.58
2019-03-15T03:53:04.100Z,1.57
2019-03-15T03:55:33.895Z,1.59
2019-03-15T03:58:03.567Z,1.56
2019-03-15T04:00:33.187Z,1.49
2019-03-15T04:03:02.816Z,1.47
2019-03-15T04:05:34.942Z,1.44
2019-03-15T04:08:04.625Z,1.43
2019-03-15T04:10:34.866Z,1.48
2019-03-15T04:13:06.317Z,1.47
2019-03-15T04:15:36.055Z,1.55
2019-03-15T04:18:06.742Z,1.55
2019-03-15T04:20:37.672Z,1.49
2019-03-15T04:23:07.426Z,1.48
2019-03-15T04:25:37.033Z,1.50
2019-03-15T04:28:06.663Z,1.50
2019-03-15T04:30:36.187Z,1.58
2019-03-15T04:33:05.839Z,1.56
2019-03-15T04:35:36.871Z,1.58
2019-03-15T04:38:06.495Z,1.65
2019-03-15T04:40:36.131Z,1.76
2019-03-15T04:43:05.841Z,1.89
2019-03-15T04:45:36.609Z,2.04
2019-03-15T04:48:06.244Z,2.18
2019-03-15T04:50:35.860Z,2.31
2019-03-15T04:53:05.602Z,2.44
2019-03-15T04:55:35.228Z,2.58
2019-03-15T04:58:04.756Z,2.75
2019-03-15T05:00:34.473Z,2.99
2019-03-15T05:03:04.108Z,3.31
2019-03-15T05:05:33.729Z,3.56
2019-03-15T05:08:03.352Z,3.83
2019-03-15T05:10:32.985Z,3.92
2019-03-15T05:13:02.713Z,3.89
2019-03-15T05:15:32.244Z,3.83
2019-03-15T05:18:01.820Z,3.63
2019-03-15T05:20:31.499Z,3.71
2019-03-15T05:23:01.133Z,3.88
2019-03-15T05:25:30.852Z,4.03
2019-03-15T05:28:00.483Z,4.19
2019-03-15T05:30:30.013Z,4.56
2019-03-15T05:32:59.777Z,4.96
2019-03-15T05:35:29.372Z,5.09
2019-03-15T05:37:59.002Z,4.97
2019-03-15T05:40:28.652Z,5.03
2019-03-15T05:42:58.141Z,5.24
2019-03-15T05:45:27.873Z,5.34
2019-03-15T05:47:57.522Z,5.59
2019-03-15T05:50:27.125Z,5.97
2019-03-15T05:52:56.758Z,6.62
2019-03-15T05:55:26.495Z,6.73
2019-03-15T05:57:56.221Z,6.85
2019-03-15T06:00:25.746Z,6.58
2019-03-15T06:02:55.699Z,6.55
2019-03-15T06:05:25.617Z,6.63
2019-03-15T06:07:55.346Z,6.53
2019-03-15T06:10:24.981Z,6.69
2019-03-15T06:12:54.595Z,6.91
2019-03-15T06:15:24.433Z,7.46
2019-03-15T06:17:54.160Z,7.67
2019-03-15T06:20:23.753Z,7.55
2019-03-15T06:22:53.414Z,7.62
2019-03-15T06:25:23.049Z,7.86
2019-03-15T06:27:52.584Z,7.82
2019-03-15T06:30:22.200Z,7.84
2019-03-15T06:32:51.921Z,8.25
2019-03-15T06:35:21.656Z,8.47
2019-03-15T06:37:51.291Z,10.31
2019-03-15T06:40:20.816Z,12.53
2019-03-15T06:42:50.545Z,12.21
2019-03-15T06:45:20.386Z,10.75
2019-03-15T06:47:50.105Z,9.85
2019-03-15T06:50:19.839Z,7.93
2019-03-15T06:52:49.662Z,7.40
2019-03-15T06:55:19.398Z,7.21
2019-03-15T06:57:49.125Z,7.07
2019-03-15T07:00:18.754Z,6.76
2019-03-15T07:02:48.488Z,6.61
2019-03-15T07:05:18.113Z,6.42
2019-03-15T07:07:47.838Z,6.33
2019-03-15T07:10:17.472Z,6.51
2019-03-15T07:12:47.201Z,6.76
2019-03-15T07:15:18.586Z,7.02
2019-03-15T07:17:48.190Z,6.88
2019-03-15T07:20:17.722Z,7.04
2019-03-15T07:22:47.472Z,7.53
2019-03-15T07:25:17.283Z,7.51
2019-03-15T07:27:47.003Z,7.27
2019-03-15T07:30:16.767Z,6.66
2019-03-15T07:32:46.269Z,6.66
2019-03-15T07:35:15.960Z,6.91
2019-03-15T07:37:45.948Z,7.52
2019-03-15T07:40:15.969Z,7.90
2019-03-15T07:42:45.717Z,8.50
2019-03-15T07:45:16.812Z,8.87
2019-03-15T07:47:46.686Z,9.32
2019-03-15T07:50:16.657Z,8.88
2019-03-15T07:52:46.352Z,8.88
2019-03-15T07:55:16.322Z,9.37
2019-03-15T07:57:45.905Z,9.72
2019-03-15T08:00:16.903Z,10.13
2019-03-15T08:02:46.729Z,11.31
2019-03-15T08:05:16.474Z,11.41
2019-03-15T08:07:46.256Z,10.93
2019-03-15T08:10:16.305Z,10.50
2019-03-15T08:12:49.667Z,10.96
2019-03-15T08:15:19.077Z,10.25
2019-03-15T08:17:49.585Z,9.72
2019-03-15T08:20:19.308Z,9.62
2019-03-15T08:22:49.047Z,9.77
2019-03-15T08:25:18.634Z,9.47
2019-03-15T08:27:48.606Z,9.23
2019-03-15T08:30:18.855Z,8.46
2019-03-15T08:32:48.582Z,8.20
2019-03-15T08:35:18.222Z,8.25
2019-03-15T08:37:48.269Z,8.14
2019-03-15T08:40:18.081Z,8.07
2019-03-15T08:42:48.119Z,7.92
2019-03-15T08:45:21.048Z,7.89
2019-03-15T08:47:50.800Z,7.95
2019-03-15T08:50:24.292Z,7.96
2019-03-15T08:52:54.243Z,7.65
2019-03-15T08:55:24.240Z,7.22
2019-03-15T08:57:54.009Z,7.22
2019-03-15T09:00:23.692Z,7.16
2019-03-15T09:02:53.445Z,7.08
2019-03-15T09:05:23.151Z,7.03
2019-03-15T09:07:54.517Z,7.26
2019-03-15T09:10:24.379Z,7.60
2019-03-15T09:12:54.078Z,7.83
2019-03-15T09:15:23.932Z,7.66
2019-03-15T09:17:53.675Z,7.47
2019-03-15T09:20:23.375Z,7.54
2019-03-15T09:22:53.110Z,7.55
2019-03-15T09:25:22.734Z,7.46
2019-03-15T09:27:52.721Z,7.45
2019-03-15T09:30:24.402Z,7.29
2019-03-15T09:32:54.382Z,7.11
2019-03-15T09:35:24.005Z,7.22
2019-03-15T09:37:53.641Z,7.49
2019-03-15T09:40:25.602Z,7.73
2019-03-15T09:42:54.744Z,7.44
2019-03-15T09:45:24.481Z,7.23
2019-03-15T09:47:54.037Z,7.16
2019-03-15T09:50:33.657Z,7.31
2019-03-15T09:52:55.084Z,7.45
2019-03-15T09:55:33.005Z,7.75
2019-03-15T09:57:56.281Z,8.04
2019-03-15T10:00:26.059Z,8.11
2019-03-15T10:02:56.409Z,7.97
2019-03-15T10:05:26.494Z,8.10
2019-03-15T10:07:56.231Z,7.99
2019-03-15T10:10:25.968Z,8.31
2019-03-15T10:13:05.796Z,8.81
2019-03-15T10:15:27.156Z,9.28
2019-03-15T10:17:56.789Z,9.24
2019-03-15T10:20:27.535Z,9.07
2019-03-15T10:23:05.799Z,8.23
2019-03-15T10:25:30.784Z,7.96
2019-03-15T10:28:00.527Z,7.97
2019-03-15T10:30:30.020Z,7.99
2019-03-15T10:32:59.661Z,8.09
2019-03-15T10:35:29.291Z,8.04
2019-03-15T10:38:00.263Z,8.07
2019-03-15T10:40:30.078Z,7.76
2019-03-15T10:43:00.221Z,7.67
2019-03-15T10:45:29.753Z,7.65
2019-03-15T10:47:59.488Z,7.76
2019-03-15T10:50:29.007Z,8.14
2019-03-15T10:52:58.731Z,8.60
2019-03-15T10:55:28.771Z,8.56
2019-03-15T10:57:58.407Z,8.76
2019-03-15T11:00:28.738Z,9.00
2019-03-15T11:02:58.594Z,9.19
2019-03-15T11:05:28.504Z,9.55
2019-03-15T11:07:58.236Z,9.67
2019-03-15T11:10:27.991Z,10.57
2019-03-15T11:12:58.826Z,11.08
2019-03-15T11:15:28.545Z,11.58
2019-03-15T11:17:58.200Z,11.28
2019-03-15T11:20:28.928Z,11.27
2019-03-15T11:22:59.072Z,11.36
2019-03-15T11:25:28.814Z,11.23
2019-03-15T11:27:58.454Z,10.74
2019-03-15T11:30:28.365Z,10.34
2019-03-15T11:32:58.022Z,10.07
2019-03-15T11:35:27.531Z,10.64
2019-03-15T11:37:57.155Z,11.16
2019-03-15T11:40:27.288Z,11.47
2019-03-15T11:42:56.908Z,11.29
2019-03-15T11:45:27.295Z,10.96
2019-03-15T11:48:04.459Z,11.11
2019-03-15T11:50:28.459Z,10.64
2019-03-15T11:52:58.902Z,10.83
2019-03-15T11:55:28.761Z,10.78
2019-03-15T11:57:59.592Z,10.95
2019-03-15T12:00:30.350Z,11.10
2019-03-15T12:03:00.027Z,11.36
2019-03-15T12:05:29.494Z,10.84
2019-03-15T12:08:00.069Z,10.12
2019-03-15T12:10:29.497Z,9.62
2019-03-15T12:12:59.294Z,9.39
2019-03-15T12:15:29.027Z,9.24
2019-03-15T12:17:59.898Z,9.12
2019-03-15T12:20:29.513Z,9.26
2019-03-15T12:22:59.371Z,9.04
2019-03-15T12:25:31.400Z,9.20
2019-03-15T12:28:00.757Z,9.37
2019-03-15T12:30:30.386Z,9.33
2019-03-15T12:32:59.999Z,9.21
2019-03-15T12:35:29.731Z,8.91
2019-03-15T12:37:59.559Z,8.77
2019-03-15T12:40:30.541Z,8.80
2019-03-15T12:43:01.786Z,8.44
2019-03-15T12:45:31.415Z,8.32
2019-03-15T12:48:01.074Z,8.63
2019-03-15T12:50:31.799Z,8.41
2019-03-15T12:53:01.358Z,8.18
2019-03-15T12:55:31.046Z,8.05
2019-03-15T12:58:00.774Z,7.83
2019-03-15T13:00:31.997Z,7.58
2019-03-15T13:03:01.975Z,7.51
2019-03-15T13:05:31.767Z,7.68
2019-03-15T13:08:02.466Z,7.72
2019-03-15T13:10:33.355Z,7.87
2019-03-15T13:13:03.049Z,7.84
2019-03-15T13:15:32.783Z,7.80
2019-03-15T13:18:02.811Z,7.70
2019-03-15T13:20:32.520Z,7.77
2019-03-15T13:23:02.073Z,7.75
2019-03-15T13:25:31.910Z,7.78
2019-03-15T13:28:01.634Z,7.86
2019-03-15T13:30:31.262Z,7.91
2019-03-15T13:33:03.388Z,7.95
2019-03-15T13:35:33.897Z,7.92
2019-03-15T13:38:02.932Z,7.87
2019-03-15T13:40:33.244Z,7.85
2019-03-15T13:43:02.602Z,7.56
2019-03-15T13:45:32.304Z,7.23
2019-03-15T13:48:02.576Z,7.07
2019-03-15T13:50:32.132Z,7.07
2019-03-15T13:53:03.021Z,7.12
2019-03-15T13:55:32.762Z,7.20
2019-03-15T13:58:02.590Z,7.25
2019-03-15T14:00:33.851Z,7.21
2019-03-15T14:03:04.501Z,7.03
2019-03-15T14:05:34.643Z,6.93
2019-03-15T14:08:11.536Z,6.81
2019-03-15T14:10:48.177Z,6.80
2019-03-15T14:13:06.999Z,6.67
2019-03-15T14:15:38.669Z,6.40
2019-03-15T14:18:08.610Z,6.21
2019-03-15T14:20:39.163Z,6.17
2019-03-15T14:23:09.832Z,6.16
2019-03-15T14:25:39.442Z,6.17
2019-03-15T14:28:10.086Z,6.10
2019-03-15T14:30:39.919Z,6.14
2019-03-15T14:33:11.379Z,6.05
2019-03-15T14:35:42.137Z,6.06
2019-03-15T14:38:12.164Z,6.05
2019-03-15T14:40:42.002Z,5.99
2019-03-15T14:43:11.697Z,5.92
2019-03-15T14:45:42.647Z,5.93
2019-03-15T14:48:14.990Z,5.98
2019-03-15T14:50:44.669Z,6.00
2019-03-15T14:53:14.233Z,5.96
2019-03-15T14:55:45.410Z,5.89
2019-03-15T14:58:14.930Z,5.89
2019-03-15T15:00:44.869Z,5.89
2019-03-15T15:03:14.692Z,5.87
2019-03-15T15:05:47.340Z,5.87
2019-03-15T15:08:16.518Z,5.88
2019-03-15T15:10:46.466Z,5.89
2019-03-15T15:13:16.476Z,5.90
2019-03-15T15:15:46.979Z,5.89
2019-03-15T15:18:16.373Z,5.83
2019-03-15T15:20:47.814Z,5.75
2019-03-15T15:23:17.858Z,5.70
2019-03-15T15:25:49.720Z,5.57
2019-03-15T15:28:19.459Z,5.50
2019-03-15T15:30:49.700Z,5.39
2019-03-15T15:33:19.326Z,5.34
2019-03-15T15:35:50.518Z,5.34
2019-03-15T15:38:20.127Z,5.28
2019-03-15T15:40:51.021Z,5.18
2019-03-15T15:43:20.614Z,5.14
2019-03-15T15:45:52.560Z,5.07
2019-03-15T15:48:21.830Z,5.03
2019-03-15T15:50:52.064Z,4.94
2019-03-15T15:53:21.662Z,4.93
2019-03-15T15:55:52.425Z,4.94
2019-03-15T15:58:22.154Z,4.93
2019-03-15T16:00:54.145Z,4.89
2019-03-15T16:03:24.002Z,4.87
2019-03-15T16:05:54.820Z,4.84
2019-03-15T16:08:25.991Z,4.79
2019-03-15T16:10:56.124Z,4.80
2019-03-15T16:13:25.749Z,4.82
2019-03-15T16:15:57.032Z,4.72
2019-03-15T16:18:27.679Z,4.74
2019-03-15T16:20:58.012Z,4.67
2019-03-15T16:23:30.430Z,4.71
2019-03-15T16:26:00.202Z,4.66
2019-03-15T16:28:31.714Z,4.66
2019-03-15T16:31:02.361Z,4.63
2019-03-15T16:33:31.875Z,4.60
2019-03-15T16:36:01.712Z,4.55
2019-03-15T16:38:33.179Z,4.59
2019-03-15T16:41:03.019Z,4.54
2019-03-15T16:43:33.995Z,4.58
2019-03-15T16:46:03.693Z,4.57
2019-03-15T16:48:33.318Z,4.56
2019-03-15T16:51:03.147Z,4.53
2019-03-15T16:53:34.834Z,4.56
2019-03-15T16:56:04.475Z,4.52
2019-03-15T16:58:44.963Z,4.49
2019-03-15T17:01:05.555Z,4.47
2019-03-15T17:03:36.315Z,4.47
2019-03-15T17:06:07.167Z,4.47
2019-03-15T17:08:36.894Z,4.49
2019-03-15T17:11:06.853Z,4.51
2019-03-15T17:13:36.451Z,4.53
2019-03-15T17:16:06.315Z,4.52
2019-03-15T17:18:37.053Z,4.53
2019-03-15T17:21:06.699Z,4.53
2019-03-15T17:23:36.490Z,4.54
2019-03-15T17:26:06.534Z,4.52
2019-03-15T17:28:36.315Z,4.51
2019-03-15T17:31:10.061Z,4.47
2019-03-15T17:33:38.586Z,4.46
2019-03-15T17:36:09.544Z,4.43
2019-03-15T17:38:39.378Z,4.41
2019-03-15T17:41:09.137Z,4.40
2019-03-15T17:43:39.058Z,4.38
2019-03-15T17:46:08.879Z,4.35
2019-03-15T17:48:38.617Z,4.34
2019-03-15T17:51:08.157Z,4.30
2019-03-15T17:53:37.961Z,4.28
2019-03-15T17:56:08.720Z,4.27
2019-03-15T17:58:40.498Z,4.31
2019-03-15T18:01:10.159Z,4.29
2019-03-15T18:03:42.240Z,4.24
2019-03-15T18:06:12.507Z,4.17
2019-03-15T18:08:42.169Z,4.17
2019-03-15T18:11:12.826Z,4.19
2019-03-15T18:13:43.276Z,4.19
2019-03-15T18:16:12.209Z,4.18
2019-03-15T18:18:41.819Z,4.20
2019-03-15T18:21:12.454Z,4.16
2019-03-15T18:23:42.091Z,4.14
2019-03-15T18:26:11.918Z,4.10
2019-03-15T18:28:43.081Z,4.09
2019-03-15T18:31:12.712Z,4.06
2019-03-15T18:33:42.747Z,4.02
2019-03-15T18:36:12.477Z,3.99
2019-03-15T18:38:42.170Z,3.98
2019-03-15T18:41:11.725Z,3.98
2019-03-15T18:43:41.463Z,3.95
2019-03-15T18:46:11.243Z,3.96
2019-03-15T18:48:40.946Z,3.98
2019-03-15T18:51:10.745Z,4.00
2019-03-15T18:53:41.408Z,3.93
2019-03-15T18:56:11.151Z,3.87
2019-03-15T18:58:40.859Z,3.87
2019-03-15T19:01:10.599Z,3.83
2019-03-15T19:03:40.431Z,3.83
2019-03-15T19:06:10.278Z,3.84
2019-03-15T19:08:39.883Z,3.82
2019-03-15T19:11:09.524Z,3.79
2019-03-15T19:13:40.372Z,3.79
2019-03-15T19:16:19.609Z,3.74
2019-03-15T19:18:41.468Z,3.76
2019-03-15T19:21:11.403Z,3.70
2019-03-15T19:23:41.333Z,3.70
2019-03-15T19:26:10.991Z,3.68
2019-03-15T19:28:41.815Z,3.65
2019-03-15T19:31:11.549Z,3.61
2019-03-15T19:33:42.246Z,3.62
2019-03-15T19:36:11.832Z,3.59
2019-03-15T19:38:41.349Z,3.62
2019-03-15T19:41:11.197Z,3.61
2019-03-15T19:43:40.920Z,3.58
2019-03-15T19:46:10.754Z,3.56
2019-03-15T19:48:42.077Z,3.58
2019-03-15T19:51:12.512Z,3.56
2019-03-15T19:53:42.406Z,3.50
2019-03-15T19:56:12.140Z,3.53
2019-03-15T19:58:41.979Z,3.50
2019-03-15T20:01:12.364Z,3.41
2019-03-15T20:03:44.307Z,3.37
2019-03-15T20:06:14.212Z,3.31
2019-03-15T20:08:43.940Z,3.21
2019-03-15T20:11:13.618Z,3.17
2019-03-15T20:13:43.719Z,3.08
2019-03-15T20:16:13.334Z,3.07
2019-03-15T20:18:43.066Z,3.01
2019-03-15T20:21:13.405Z,3.01
2019-03-15T20:23:44.057Z,2.97
2019-03-15T20:26:13.692Z,2.93
2019-03-15T20:28:43.308Z,2.94
2019-03-15T20:31:13.058Z,2.90
2019-03-15T20:33:42.775Z,2.85
2019-03-15T20:36:12.396Z,2.87
2019-03-15T20:38:42.132Z,2.86
2019-03-15T20:41:11.905Z,2.82
2019-03-15T20:43:41.686Z,2.84
2019-03-15T20:46:11.215Z,2.74
2019-03-15T20:48:41.150Z,2.65
2019-03-15T20:51:10.882Z,2.60
2019-03-15T20:53:40.514Z,2.62
2019-03-15T20:56:10.141Z,2.53
2019-03-15T20:58:39.780Z,2.45
2019-03-15T21:01:09.494Z,2.44
2019-03-15T21:03:39.227Z,2.42
2019-03-15T21:06:08.854Z,2.40
2019-03-15T21:08:38.483Z,2.42
2019-03-15T21:11:08.114Z,2.46
2019-03-15T21:13:37.732Z,2.53
2019-03-15T21:16:07.365Z,2.52
2019-03-15T21:18:36.994Z,2.47
2019-03-15T21:21:06.638Z,2.40
2019-03-15T21:23:36.248Z,2.40
2019-03-15T21:26:05.997Z,2.34
2019-03-15T21:28:35.606Z,2.30
2019-03-15T21:31:05.236Z,2.24
2019-03-15T21:33:34.965Z,2.20
2019-03-15T21:36:04.792Z,2.16
2019-03-15T21:38:47.334Z,2.17
2019-03-15T21:41:05.787Z,2.17
2019-03-15T21:43:35.417Z,2.15
2019-03-15T21:46:05.044Z,2.13
2019-03-15T21:48:34.777Z,2.14
2019-03-15T21:51:04.617Z,2.18
2019-03-15T21:53:34.248Z,2.17
2019-03-15T21:56:03.963Z,2.21
2019-03-15T21:58:33.492Z,2.25
2019-03-15T22:01:03.128Z,2.29
2019-03-15T22:03:32.859Z,2.31
2019-03-15T22:06:02.576Z,2.33
2019-03-15T22:08:32.308Z,2.36
2019-03-15T22:11:01.834Z,2.35
2019-03-15T22:13:31.663Z,2.35
2019-03-15T22:16:01.193Z,2.32
2019-03-15T22:18:30.914Z,2.32
2019-03-15T22:21:00.654Z,2.31
2019-03-15T22:23:30.278Z,2.31
2019-03-15T22:26:00.040Z,2.27
2019-03-15T22:28:30.265Z,2.24
2019-03-15T22:30:59.877Z,2.14
2019-03-15T22:33:29.607Z,2.11
2019-03-15T22:35:59.246Z,2.11
2019-03-15T22:38:29.075Z,2.19
2019-03-15T22:40:58.805Z,2.22
2019-03-15T22:43:28.419Z,2.24
2019-03-15T22:45:59.481Z,2.14
2019-03-15T22:48:29.127Z,2.13
2019-03-15T22:50:58.943Z,2.15
2019-03-15T22:53:28.613Z,2.21
2019-03-15T22:55:58.275Z,2.17
2019-03-15T22:58:28.033Z,2.09
2019-03-15T23:00:57.909Z,2.03
2019-03-15T23:03:29.332Z,1.92
2019-03-15T23:05:59.067Z,1.84
2019-03-15T23:08:28.541Z,1.78
2019-03-15T23:10:59.757Z,1.74
2019-03-15T23:13:29.242Z,1.67
2019-03-15T23:15:58.815Z,1.58
2019-03-15T23:18:28.534Z,1.47
2019-03-15T23:20:58.161Z,1.41
2019-03-15T23:23:28.709Z,1.38
2019-03-15T23:25:58.308Z,1.34
2019-03-15T23:28:27.966Z,1.28
2019-03-15T23:30:57.596Z,1.23
2019-03-15T23:33:27.216Z,1.13
2019-03-15T23:35:56.932Z,0.96
2019-03-15T23:38:26.572Z,0.84
2019-03-15T23:40:56.207Z,0.90
2019-03-15T23:43:25.827Z,0.83
2019-03-15T23:45:55.360Z,0.78
2019-03-15T23:48:24.981Z,0.72
2019-03-15T23:50:54.616Z,0.79
2019-03-15T23:53:24.143Z,0.80
2019-03-15T23:55:55.056Z,0.87
2019-03-15T23:58:24.743Z,0.83
